Main page
METAR-TAF:

METAR-TAF

Airports :

Lawrence Municipal Airport

Lawrence, Massachusetts, United States

latitude: 42-42-47N, longitude: 071-07-33W, elevation: 148 ft

Current weather observation

The report was made 19 minutes ago, at 22:54 UTC
Wind 9 mph from the South
Temperature 52°F
Humidity 94%
Pressure 29.86 in. Hg
Visibility: 10 miles
Overcast at a height of 700 ft

METAR: KLWM 092254Z 18008KT 10SM OVC007 11/10 A2986 RMK AO2 RAB02E23 CIG 006V010 SLP110 P0000 T01110100

Time: 18:13 (23:13 UTC)


TAF: missing

Weather observations and forecasts of more than 4000 airports (METAR and TAF reports).

The available stations are represented by yellow and red dots on the map.

Hover mouse over dot to see the name of the station.

Then click to see weather observations and forecasts.

To change the map : click on the green buttons with a black cross to zoom in, on the green button with a dash to zoom out, or on the green arrows for adjacent maps.


METAR-TAF: